createdAt,value
2019-01-23T00:00:31.022Z,14.23
2019-01-23T00:02:59.965Z,14.00
2019-01-23T00:05:28.861Z,14.07
2019-01-23T00:07:57.840Z,14.23
2019-01-23T00:10:26.719Z,12.20
2019-01-23T00:12:55.505Z,14.50
2019-01-23T00:15:24.479Z,11.87
2019-01-23T00:17:53.340Z,11.55
2019-01-23T00:20:22.138Z,13.75
2019-01-23T00:22:50.928Z,12.03
2019-01-23T00:25:19.715Z,13.40
2019-01-23T00:27:48.503Z,14.87
2019-01-23T00:30:17.786Z,13.70
2019-01-23T00:32:46.567Z,13.20
2019-01-23T00:35:15.519Z,14.80
2019-01-23T00:37:44.306Z,14.70
2019-01-23T00:40:13.389Z,13.53
2019-01-23T00:42:42.174Z,12.15
2019-01-23T00:45:11.459Z,11.73
2019-01-23T00:47:40.311Z,13.40
2019-01-23T00:50:09.718Z,12.77
2019-01-23T00:52:38.594Z,17.02
2019-01-23T00:55:10.580Z,12.83
2019-01-23T00:57:39.365Z,12.70
2019-01-23T01:00:15.619Z,15.37
2019-01-23T01:02:44.550Z,12.50
2019-01-23T01:05:14.195Z,12.53
2019-01-23T01:07:43.073Z,14.90
2019-01-23T01:10:13.206Z,12.97
2019-01-23T01:12:41.998Z,13.63
2019-01-23T01:15:13.377Z,14.60
2019-01-23T01:17:41.856Z,13.87
2019-01-23T01:20:11.390Z,12.70
2019-01-23T01:22:40.253Z,14.00
2019-01-23T01:25:11.314Z,15.97
2019-01-23T01:27:40.210Z,10.80
2019-01-23T01:30:12.826Z,15.28
2019-01-23T01:32:41.750Z,12.40
2019-01-23T01:35:10.696Z,12.73
2019-01-23T01:37:39.501Z,10.95
2019-01-23T01:40:12.497Z,12.95
2019-01-23T01:42:41.272Z,11.87
2019-01-23T01:45:11.118Z,9.87
2019-01-23T01:47:39.992Z,12.88
2019-01-23T01:50:14.823Z,15.43
2019-01-23T01:52:43.686Z,12.80
2019-01-23T01:55:12.941Z,12.33
2019-01-23T01:57:41.807Z,13.47
2019-01-23T02:00:14.096Z,12.05
2019-01-23T02:02:43.043Z,12.30
2019-01-23T02:05:12.194Z,14.00
2019-01-23T02:07:41.134Z,15.13
2019-01-23T02:10:12.520Z,14.53
2019-01-23T02:12:41.573Z,13.80
2019-01-23T02:15:11.483Z,15.00
2019-01-23T02:17:40.543Z,17.85
2019-01-23T02:20:16.485Z,13.70
2019-01-23T02:22:45.427Z,13.53
2019-01-23T02:25:14.589Z,16.20
2019-01-23T02:27:44.129Z,13.53
2019-01-23T02:30:14.020Z,16.67
2019-01-23T02:32:42.893Z,11.63
2019-01-23T02:35:11.827Z,11.03
2019-01-23T02:37:41.088Z,16.45
2019-01-23T02:40:16.594Z,16.10
2019-01-23T02:42:45.551Z,16.27
2019-01-23T02:45:14.883Z,13.47
2019-01-23T02:47:43.764Z,15.43
2019-01-23T02:50:13.037Z,16.90
2019-01-23T02:52:41.827Z,13.63
2019-01-23T02:55:11.855Z,13.93
2019-01-23T02:57:41.477Z,15.23
2019-01-23T03:00:12.928Z,13.67
2019-01-23T03:02:41.885Z,11.80
2019-01-23T03:05:14.123Z,14.83
2019-01-23T03:07:43.072Z,13.33
2019-01-23T03:10:13.712Z,13.10
2019-01-23T03:12:42.679Z,16.40
2019-01-23T03:15:12.478Z,14.00
2019-01-23T03:17:42.015Z,13.80
2019-01-23T03:20:12.950Z,15.20
2019-01-23T03:22:42.502Z,14.85
2019-01-23T03:25:12.878Z,13.30
2019-01-23T03:27:42.288Z,14.40
2019-01-23T03:30:14.425Z,13.10
2019-01-23T03:32:43.369Z,16.20
2019-01-23T03:35:12.620Z,14.25
2019-01-23T03:37:41.562Z,14.17
2019-01-23T03:40:13.341Z,13.65
2019-01-23T03:42:42.839Z,15.03
2019-01-23T03:45:12.841Z,14.23
2019-01-23T03:47:41.773Z,14.98
2019-01-23T03:50:12.898Z,16.90
2019-01-23T03:52:41.775Z,14.68
2019-01-23T03:55:11.515Z,15.87
2019-01-23T03:57:40.447Z,12.90
2019-01-23T04:00:12.503Z,15.13
2019-01-23T04:02:41.472Z,15.30
2019-01-23T04:05:10.920Z,15.40
2019-01-23T04:07:39.922Z,15.73
2019-01-23T04:10:11.324Z,14.30
2019-01-23T04:12:40.201Z,19.53
2019-01-23T04:15:10.320Z,15.43
2019-01-23T04:17:39.197Z,16.27
2019-01-23T04:20:19.933Z,18.87
2019-01-23T04:22:48.801Z,15.63
2019-01-23T04:25:17.841Z,16.82
2019-01-23T04:27:46.784Z,15.70
2019-01-23T04:30:18.281Z,20.90
2019-01-23T04:32:47.160Z,20.30
2019-01-23T04:35:16.091Z,20.23
2019-01-23T04:37:45.041Z,17.62
2019-01-23T04:40:14.345Z,18.17
2019-01-23T04:42:43.302Z,17.77
2019-01-23T04:45:13.844Z,18.00
2019-01-23T04:47:42.769Z,17.73
2019-01-23T04:50:13.300Z,17.27
2019-01-23T04:52:59.891Z,20.00
2019-01-23T04:55:28.777Z,16.03
2019-01-23T04:57:57.653Z,17.93
2019-01-23T05:00:27.688Z,18.63
2019-01-23T05:02:56.569Z,16.87
2019-01-23T05:05:25.453Z,17.20
2019-01-23T05:07:54.407Z,16.10
2019-01-23T05:10:23.343Z,16.57
2019-01-23T05:12:52.226Z,15.13
2019-01-23T05:15:21.099Z,19.23
2019-01-23T05:17:49.891Z,14.47
2019-01-23T05:20:18.827Z,16.47
2019-01-23T05:22:47.766Z,18.53
2019-01-23T05:25:16.714Z,18.27
2019-01-23T05:27:45.616Z,15.97
2019-01-23T05:30:17.971Z,11.45
2019-01-23T05:32:46.827Z,18.23
2019-01-23T05:35:16.245Z,16.45
2019-01-23T05:37:45.865Z,17.32
2019-01-23T05:40:15.213Z,16.80
2019-01-23T05:42:44.153Z,14.53
2019-01-23T05:45:13.420Z,19.77
2019-01-23T05:47:42.280Z,15.60
2019-01-23T05:50:14.003Z,14.50
2019-01-23T05:52:42.945Z,18.30
2019-01-23T05:55:12.745Z,19.73
2019-01-23T05:57:41.607Z,15.50
2019-01-23T06:00:13.508Z,18.70
2019-01-23T06:02:42.378Z,17.82
2019-01-23T06:05:11.681Z,15.33
2019-01-23T06:07:40.553Z,17.40
2019-01-23T06:10:09.817Z,19.13
2019-01-23T06:12:38.805Z,18.13
2019-01-23T06:15:08.689Z,15.73
2019-01-23T06:17:37.488Z,20.17
2019-01-23T06:20:08.423Z,17.63
2019-01-23T06:22:37.322Z,17.23
2019-01-23T06:25:06.802Z,15.93
2019-01-23T06:27:35.803Z,16.60
2019-01-23T06:30:10.331Z,15.83
2019-01-23T06:32:37.671Z,15.50
2019-01-23T06:35:06.673Z,16.83
2019-01-23T06:37:35.537Z,16.87
2019-01-23T06:40:05.582Z,14.17
2019-01-23T06:42:34.380Z,16.30
2019-01-23T06:45:03.252Z,14.57
2019-01-23T06:47:32.254Z,16.03
2019-01-23T06:50:01.124Z,15.63
2019-01-23T06:52:29.982Z,17.40
2019-01-23T06:54:58.792Z,16.70
2019-01-23T06:57:27.651Z,15.80
2019-01-23T06:59:56.447Z,18.40
2019-01-23T07:02:25.315Z,18.98
2019-01-23T07:04:54.121Z,12.27
2019-01-23T07:07:22.992Z,16.47
2019-01-23T07:09:51.967Z,17.37
2019-01-23T07:12:20.747Z,17.17
2019-01-23T07:14:49.524Z,13.90
2019-01-23T07:17:19.053Z,16.93
2019-01-23T07:19:47.848Z,16.60
2019-01-23T07:22:16.654Z,17.50
2019-01-23T07:24:45.525Z,11.83
2019-01-23T07:27:14.324Z,16.30
2019-01-23T07:29:43.216Z,15.68
2019-01-23T07:32:12.185Z,14.97
2019-01-23T07:34:40.984Z,14.50
2019-01-23T07:37:09.929Z,19.63
2019-01-23T07:39:38.748Z,15.23
2019-01-23T07:42:07.611Z,16.20
2019-01-23T07:44:36.404Z,16.87
2019-01-23T07:47:05.389Z,17.10
2019-01-23T07:49:34.184Z,17.27
2019-01-23T07:52:03.077Z,17.13
2019-01-23T07:54:31.856Z,15.95
2019-01-23T07:57:00.661Z,15.00
2019-01-23T07:59:29.448Z,18.50
2019-01-23T08:01:58.319Z,14.57
2019-01-23T08:04:27.100Z,16.35
2019-01-23T08:06:55.912Z,18.97
2019-01-23T08:09:24.768Z,17.40
2019-01-23T08:11:53.675Z,16.97
2019-01-23T08:14:22.436Z,15.53
2019-01-23T08:16:51.599Z,16.20
2019-01-23T08:19:21.016Z,17.48
2019-01-23T08:21:49.936Z,18.57
2019-01-23T08:24:18.813Z,15.90
2019-01-23T08:26:47.725Z,18.73
2019-01-23T08:29:16.661Z,16.93
2019-01-23T08:31:45.541Z,17.30
2019-01-23T08:34:14.306Z,19.80
2019-01-23T08:36:43.100Z,17.77
2019-01-23T08:39:11.957Z,17.37
2019-01-23T08:41:40.951Z,18.03
2019-01-23T08:44:09.808Z,17.77
2019-01-23T08:46:38.590Z,17.00
2019-01-23T08:49:07.379Z,16.77
2019-01-23T08:51:36.164Z,18.00
2019-01-23T08:54:05.602Z,17.87
2019-01-23T08:56:34.462Z,22.07
2019-01-23T08:59:03.421Z,19.33
2019-01-23T09:01:32.202Z,17.90
2019-01-23T09:04:00.994Z,18.83
2019-01-23T09:06:29.868Z,17.03
2019-01-23T09:08:58.648Z,21.62
2019-01-23T09:11:27.435Z,19.98
2019-01-23T09:13:56.253Z,17.53
2019-01-23T09:16:25.039Z,19.70
2019-01-23T09:18:53.948Z,16.57
2019-01-23T09:21:23.167Z,17.02
2019-01-23T09:23:52.326Z,18.15
2019-01-23T09:26:21.125Z,20.12
2019-01-23T09:28:49.936Z,14.67
2019-01-23T09:32:07.725Z,20.20
2019-01-23T09:35:05.615Z,20.17
2019-01-23T09:38:09.256Z,17.52
2019-01-23T09:41:04.121Z,18.63
2019-01-23T09:44:10.549Z,20.53
2019-01-23T09:47:03.100Z,19.20
2019-01-23T09:50:22.397Z,18.92
2019-01-23T09:53:20.966Z,19.83
2019-01-23T09:55:49.868Z,18.87
2019-01-23T09:58:18.827Z,19.60
2019-01-23T10:00:47.687Z,17.07
2019-01-23T10:03:22.804Z,18.13
2019-01-23T10:05:47.077Z,19.87
2019-01-23T10:08:15.898Z,18.33
2019-01-23T10:10:44.783Z,18.70
2019-01-23T10:13:13.584Z,18.40
2019-01-23T10:15:51.633Z,18.07
2019-01-23T10:18:20.500Z,16.03
2019-01-23T10:20:49.371Z,22.13
2019-01-23T10:23:18.182Z,15.70
2019-01-23T10:25:47.071Z,16.87
2019-01-23T10:28:15.941Z,17.70
2019-01-23T10:30:44.819Z,21.33
2019-01-23T10:33:13.595Z,14.70
2019-01-23T10:35:42.465Z,17.93
2019-01-23T10:38:11.262Z,17.53
2019-01-23T10:40:40.129Z,17.87
2019-01-23T10:43:09.083Z,17.40
2019-01-23T10:45:37.958Z,16.47
2019-01-23T10:48:07.181Z,20.10
2019-01-23T10:50:36.058Z,16.80
2019-01-23T10:53:05.047Z,17.20
2019-01-23T10:55:33.925Z,19.50
2019-01-23T10:58:02.879Z,13.57
2019-01-23T11:00:32.097Z,15.00
2019-01-23T11:03:01.071Z,16.15
2019-01-23T11:05:30.131Z,18.43
2019-01-23T11:07:59.059Z,16.65
2019-01-23T11:10:28.041Z,17.03
2019-01-23T11:12:57.342Z,14.78
2019-01-23T11:15:26.286Z,17.07
2019-01-23T11:17:55.152Z,16.40
2019-01-23T11:20:24.121Z,17.33
2019-01-23T11:22:52.999Z,21.40
2019-01-23T11:25:21.958Z,21.73
2019-01-23T11:27:50.896Z,21.60
2019-01-23T11:30:22.526Z,17.35
2019-01-23T11:32:51.508Z,17.57
2019-01-23T11:35:20.383Z,20.27
2019-01-23T11:37:49.649Z,21.12
2019-01-23T11:40:21.391Z,20.47
2019-01-23T11:42:50.321Z,16.67
2019-01-23T11:45:19.274Z,20.33
2019-01-23T11:47:48.608Z,21.17
2019-01-23T11:50:22.932Z,18.80
2019-01-23T11:52:49.136Z,18.07
2019-01-23T11:55:18.155Z,17.17
2019-01-23T11:57:47.024Z,20.57
2019-01-23T12:00:20.573Z,19.13
2019-01-23T12:02:49.763Z,18.87
2019-01-23T12:05:20.547Z,18.60
2019-01-23T12:07:49.969Z,18.10
2019-01-23T12:10:20.622Z,19.07
2019-01-23T12:12:49.474Z,16.20
2019-01-23T12:15:20.171Z,20.83
2019-01-23T12:17:49.118Z,20.53
2019-01-23T12:20:18.264Z,18.75
2019-01-23T12:22:47.200Z,18.23
2019-01-23T12:25:16.243Z,18.02
2019-01-23T12:27:45.235Z,23.80
2019-01-23T12:30:17.360Z,17.20
2019-01-23T12:32:46.194Z,17.50
2019-01-23T12:35:15.153Z,19.87
2019-01-23T12:37:44.092Z,16.77
2019-01-23T12:40:13.359Z,17.47
2019-01-23T12:42:42.219Z,17.80
2019-01-23T12:45:17.644Z,17.63
2019-01-23T12:47:46.432Z,16.53
2019-01-23T12:50:17.479Z,14.77
2019-01-23T12:52:46.347Z,14.38
2019-01-23T12:55:15.430Z,18.07
2019-01-23T12:57:44.392Z,16.40
2019-01-23T13:00:16.861Z,14.53
2019-01-23T13:02:45.731Z,16.77
2019-01-23T13:05:17.785Z,19.30
2019-01-23T13:07:46.777Z,15.27
2019-01-23T13:10:17.671Z,16.40
2019-01-23T13:12:46.626Z,20.57
2019-01-23T13:15:18.217Z,18.40
2019-01-23T13:17:47.115Z,16.65
2019-01-23T13:20:16.921Z,25.10
2019-01-23T13:22:45.868Z,20.50
2019-01-23T13:25:18.528Z,22.27
2019-01-23T13:27:48.011Z,24.73
2019-01-23T13:30:19.060Z,21.17
2019-01-23T13:32:48.167Z,21.57
2019-01-23T13:35:19.252Z,16.30
2019-01-23T13:37:48.218Z,19.50
2019-01-23T13:40:22.831Z,21.47
2019-01-23T13:42:51.617Z,17.60
2019-01-23T13:45:20.839Z,22.13
2019-01-23T13:47:49.727Z,16.85
2019-01-23T13:50:18.754Z,20.03
2019-01-23T13:52:47.832Z,15.40
2019-01-23T13:55:17.864Z,13.63
2019-01-23T13:57:46.778Z,18.53
2019-01-23T14:00:21.483Z,20.20
2019-01-23T14:02:50.434Z,17.27
2019-01-23T14:05:19.487Z,18.80
2019-01-23T14:07:48.444Z,14.40
2019-01-23T14:10:17.559Z,21.47
2019-01-23T14:12:46.495Z,17.03
2019-01-23T14:15:19.600Z,16.70
2019-01-23T14:17:48.474Z,15.00
2019-01-23T14:20:17.908Z,17.07
2019-01-23T14:22:46.700Z,18.63
2019-01-23T14:25:16.126Z,17.80
2019-01-23T14:27:45.279Z,16.57
2019-01-23T14:30:23.375Z,14.17
2019-01-23T14:32:52.174Z,20.40
2019-01-23T14:35:21.077Z,19.25
2019-01-23T14:37:49.955Z,20.33
2019-01-23T14:40:18.980Z,16.33
2019-01-23T14:42:47.866Z,19.75
2019-01-23T14:45:16.959Z,16.30
2019-01-23T14:47:45.943Z,21.73
2019-01-23T14:50:15.015Z,16.43
2019-01-23T14:52:44.506Z,18.57
2019-01-23T14:55:13.741Z,17.13
2019-01-23T14:57:43.102Z,16.70
2019-01-23T15:00:15.472Z,19.07
2019-01-23T15:02:44.453Z,19.17
2019-01-23T15:05:13.493Z,16.60
2019-01-23T15:07:42.453Z,17.17
2019-01-23T15:10:14.878Z,17.67
2019-01-23T15:12:43.820Z,14.47
2019-01-23T15:15:13.006Z,15.53
2019-01-23T15:17:41.876Z,17.02
2019-01-23T15:20:15.198Z,19.63
2019-01-23T15:22:44.060Z,17.77
2019-01-23T15:25:13.311Z,18.60
2019-01-23T15:27:42.115Z,16.75
2019-01-23T15:30:12.827Z,25.30
2019-01-23T15:32:41.685Z,22.20
2019-01-23T15:35:10.866Z,21.73
2019-01-23T15:37:39.815Z,20.75
2019-01-23T15:40:11.907Z,18.23
2019-01-23T15:42:40.781Z,21.42
2019-01-23T15:45:10.388Z,17.47
2019-01-23T15:47:39.472Z,23.03
2019-01-23T15:50:11.943Z,18.40
2019-01-23T15:52:40.806Z,19.30
2019-01-23T15:55:11.539Z,19.43
2019-01-23T15:57:40.332Z,17.67
2019-01-23T16:00:16.135Z,19.70
2019-01-23T16:02:45.164Z,13.70
2019-01-23T16:05:14.725Z,23.13
2019-01-23T16:07:43.720Z,14.00
2019-01-23T16:10:14.956Z,17.30
2019-01-23T16:12:43.988Z,17.00
2019-01-23T16:15:13.539Z,21.13
2019-01-23T16:17:42.905Z,20.50
2019-01-23T16:20:12.107Z,17.27
2019-01-23T16:22:41.241Z,17.87
2019-01-23T16:25:12.066Z,20.50
2019-01-23T16:27:41.070Z,17.30
2019-01-23T16:30:15.326Z,21.40
2019-01-23T16:32:44.189Z,17.53
2019-01-23T16:35:13.142Z,19.60
2019-01-23T16:37:42.174Z,18.80
2019-01-23T16:40:11.608Z,18.95
2019-01-23T16:42:41.473Z,20.25
2019-01-23T16:45:11.849Z,24.15
2019-01-23T16:47:41.392Z,18.77
2019-01-23T16:50:14.562Z,23.52
2019-01-23T16:52:43.605Z,20.77
2019-01-23T16:55:12.763Z,19.73
2019-01-23T16:57:42.021Z,24.83
2019-01-23T17:00:13.594Z,26.65
2019-01-23T17:02:42.462Z,20.95
2019-01-23T17:05:15.591Z,21.75
2019-01-23T17:07:44.736Z,19.30
2019-01-23T17:10:15.842Z,21.47
2019-01-23T17:12:44.883Z,22.60
2019-01-23T17:15:13.840Z,19.53
2019-01-23T17:17:42.787Z,21.50
2019-01-23T17:20:18.013Z,21.15
2019-01-23T17:22:46.891Z,20.10
2019-01-23T17:25:15.941Z,19.70
2019-01-23T17:27:44.851Z,19.40
2019-01-23T17:30:15.092Z,22.50
2019-01-23T17:32:45.728Z,23.07
2019-01-23T17:35:15.823Z,18.03
2019-01-23T17:37:44.800Z,23.13
2019-01-23T17:40:15.778Z,26.37
2019-01-23T17:42:44.831Z,18.57
2019-01-23T17:45:16.278Z,23.92
2019-01-23T17:47:45.227Z,19.40
2019-01-23T17:50:16.190Z,18.97
2019-01-23T17:52:45.049Z,20.30
2019-01-23T17:55:20.187Z,25.10
2019-01-23T17:57:49.048Z,20.30
2019-01-23T18:00:22.295Z,20.95
2019-01-23T18:02:52.753Z,17.83
2019-01-23T18:05:21.929Z,21.77
2019-01-23T18:07:50.824Z,22.87
2019-01-23T18:10:19.764Z,25.57
2019-01-23T18:12:48.699Z,19.00
2019-01-23T18:15:22.435Z,19.95
2019-01-23T18:17:51.405Z,25.20
2019-01-23T18:20:27.924Z,26.60
2019-01-23T18:22:57.058Z,18.53
2019-01-23T18:25:26.122Z,23.13
2019-01-23T18:27:54.995Z,19.57
2019-01-23T18:30:30.119Z,25.97
2019-01-23T18:33:00.158Z,20.57
2019-01-23T18:35:54.278Z,21.47
2019-01-23T18:38:39.445Z,17.70
2019-01-23T18:41:51.404Z,20.37
2019-01-23T18:44:52.159Z,19.33
2019-01-23T18:47:52.649Z,18.90
2019-01-23T18:51:04.389Z,21.73
2019-01-23T18:53:33.253Z,18.07
2019-01-23T18:56:02.103Z,20.72
2019-01-23T18:58:31.072Z,18.30
2019-01-23T19:00:59.875Z,19.53
2019-01-23T19:03:28.880Z,17.92
2019-01-23T19:05:57.749Z,18.42
2019-01-23T19:08:27.056Z,18.10
2019-01-23T19:10:56.088Z,19.03
2019-01-23T19:13:25.000Z,22.87
2019-01-23T19:15:53.936Z,18.80
2019-01-23T19:18:22.799Z,20.57
2019-01-23T19:20:51.656Z,21.40
2019-01-23T19:23:20.614Z,26.27
2019-01-23T19:25:49.544Z,20.27
2019-01-23T19:28:18.339Z,19.97
2019-01-23T19:30:47.200Z,23.40
2019-01-23T19:33:16.067Z,25.90
2019-01-23T19:35:45.737Z,24.55
2019-01-23T19:38:14.605Z,21.25
2019-01-23T19:40:43.849Z,22.37
2019-01-23T19:43:12.784Z,21.45
2019-01-23T19:45:41.649Z,21.70
2019-01-23T19:48:10.638Z,20.67
2019-01-23T19:50:39.434Z,23.90
2019-01-23T19:53:08.498Z,23.23
2019-01-23T19:55:37.439Z,20.60
2019-01-23T19:58:06.513Z,31.20
2019-01-23T20:00:36.063Z,24.27
2019-01-23T20:03:05.277Z,23.60
2019-01-23T20:05:34.553Z,21.03
2019-01-23T20:08:04.257Z,26.03
2019-01-23T20:10:33.114Z,26.33
2019-01-23T20:13:02.029Z,20.90
2019-01-23T20:15:31.837Z,21.27
2019-01-23T20:18:06.710Z,24.12
2019-01-23T20:20:35.558Z,18.17
2019-01-23T20:23:04.595Z,21.57
2019-01-23T20:25:33.516Z,24.00
2019-01-23T20:28:03.249Z,26.50
2019-01-23T20:30:38.243Z,20.97
2019-01-23T20:33:07.387Z,25.90
2019-01-23T20:35:36.367Z,25.37
2019-01-23T20:38:05.701Z,21.47
2019-01-23T20:40:34.859Z,23.77
2019-01-23T20:43:03.845Z,23.20
2019-01-23T20:45:32.732Z,18.50
2019-01-23T20:48:01.714Z,22.97
2019-01-23T20:50:31.861Z,24.40
2019-01-23T20:53:00.908Z,27.80
2019-01-23T20:55:29.736Z,22.03
2019-01-23T20:57:58.832Z,20.67
2019-01-23T21:00:30.076Z,23.17
2019-01-23T21:02:59.110Z,26.30
2019-01-23T21:05:28.176Z,23.90
2019-01-23T21:07:57.085Z,22.27
2019-01-23T21:10:26.282Z,17.57
2019-01-23T21:12:55.251Z,22.27
2019-01-23T21:15:34.396Z,22.73
2019-01-23T21:18:05.059Z,22.90
2019-01-23T21:20:36.531Z,19.40
2019-01-23T21:23:06.151Z,25.13
2019-01-23T21:25:35.165Z,26.23
2019-01-23T21:28:04.364Z,21.60
2019-01-23T21:30:33.224Z,24.80
2019-01-23T21:33:02.215Z,19.37
2019-01-23T21:35:31.138Z,21.07
2019-01-23T21:37:59.921Z,18.27
2019-01-23T21:40:31.216Z,25.30
2019-01-23T21:43:00.509Z,20.13
2019-01-23T21:45:30.984Z,20.37
2019-01-23T21:48:00.032Z,22.20
2019-01-23T21:50:29.130Z,23.73
2019-01-23T21:52:58.238Z,23.73
2019-01-23T21:55:27.216Z,22.70
2019-01-23T21:57:56.034Z,30.23
2019-01-23T22:02:38.631Z,23.27
2019-01-23T22:05:08.202Z,21.83
2019-01-23T22:07:37.083Z,19.87
2019-01-23T22:10:06.695Z,25.00
2019-01-23T22:12:35.516Z,19.97
2019-01-23T22:15:05.313Z,25.50
2019-01-23T22:17:34.119Z,24.00
2019-01-23T22:20:03.054Z,23.20
2019-01-23T22:22:31.921Z,23.87
2019-01-23T22:25:00.805Z,24.50
2019-01-23T22:27:29.620Z,27.53
2019-01-23T22:29:58.476Z,18.30
2019-01-23T22:32:27.335Z,22.93
2019-01-23T22:34:56.223Z,22.55
2019-01-23T22:37:25.224Z,23.67
2019-01-23T22:39:54.240Z,24.83
2019-01-23T22:42:23.193Z,25.47
2019-01-23T22:44:51.993Z,27.43
2019-01-23T22:47:21.763Z,24.67
2019-01-23T22:49:50.815Z,24.03
2019-01-23T22:52:19.627Z,31.30
2019-01-23T22:54:48.744Z,26.13
2019-01-23T22:57:17.721Z,26.83
2019-01-23T22:59:46.667Z,24.20
2019-01-23T23:02:15.607Z,27.70
2019-01-23T23:04:44.555Z,27.43
2019-01-23T23:07:13.454Z,25.72
2019-01-23T23:09:42.310Z,27.58
2019-01-23T23:12:11.270Z,24.90
2019-01-23T23:14:40.138Z,28.53
2019-01-23T23:17:09.008Z,25.67
2019-01-23T23:19:37.806Z,26.23
2019-01-23T23:22:06.729Z,24.50
2019-01-23T23:24:35.704Z,27.47
2019-01-23T23:27:04.757Z,24.57
2019-01-23T23:29:33.651Z,26.48
2019-01-23T23:32:02.593Z,27.17
2019-01-23T23:34:31.477Z,28.60
2019-01-23T23:37:00.352Z,24.43
2019-01-23T23:39:29.152Z,27.10
2019-01-23T23:41:57.953Z,27.95
2019-01-23T23:44:26.903Z,25.03
2019-01-23T23:46:55.786Z,28.40
2019-01-23T23:49:24.789Z,25.70
2019-01-23T23:51:54.016Z,24.60
2019-01-23T23:54:22.881Z,24.57
2019-01-23T23:56:51.683Z,28.67
2019-01-23T23:59:20.577Z,27.20
